KTHV/THV METAR and TAF weather

Enter ICAO airport designator
Station Type Date Time Source
KTHV METAR 2018/12/19 02:53 UTC NOAA

KTHV 190253Z AUTO 00000KT 10SM CLR M03/M05 A3017 RMK AO2 SLP223 T10331050 51004


Station Type Date Time Source
KTHV Decoded METAR 2018/12/19 02:53 UTC NOAA

YORK AIRPORT, PA, United States (KTHV) 39-55N 076-53W 144M
Dec 18, 2018 - 09:53 PM EST / 2018.12.19 0253 UTC
Wind: Calm:0
Visibility: 10 mile(s):0
Sky conditions: clear
Temperature: 26.1 F (-3.3 C)
Dew Point: 23.0 F (-5.0 C)
Relative Humidity: 87%
Pressure (altimeter): 30.17 in. Hg (1021 hPa)
Pressure tendency: 0.01 inches (0.4 hPa) higher than three hours ago
ob: KTHV 190253Z AUTO 00000KT 10SM CLR M03/M05 A3017 RMK AO2 SLP223 T10331050 51004
cycle: 3

Station Type Date Time Source
KTHV TAF UTC NOAA

Error!


Example: see airport list